Time;durP1;ratioP1;P1;durP2;ratioP2;P2;SDS_P1;SDS_P2;PMS_P1;PMS_P2;Temp;Humidity;BMP_temperature;BMP_pressure;BME280_temperature;BME280_humidity;BME280_pressure;Samples;Min_cycle;Max_cycle;Signal;HPM_P1;HPM_P2
2021/06/18 00:00:58;;;;;;;;;;;18.30;99.90;;;;;;6167947;23;19919;-80
2021/06/18 00:03:26;;;;;;;;;;;18.30;99.90;;;;;;6167463;23;19920;-80
2021/06/18 00:05:53;;;;;;;;;;;18.30;99.90;;;;;;6167794;23;20345;-80
2021/06/18 00:08:25;;;;;;;;;;;18.20;99.90;;;;;;6168997;23;20345;-79
2021/06/18 00:10:53;;;;;;;;;;;18.20;99.90;;;;;;6167820;23;19919;-80
2021/06/18 00:13:20;;;;;;;;;;;18.10;99.90;;;;;;6167952;23;20265;-80
2021/06/18 00:15:47;;;;;;;;;;;18.20;99.90;;;;;;6167020;23;19943;-79
2021/06/18 00:18:15;;;;;;;;;;;18.10;99.90;;;;;;6167719;23;20234;-80
2021/06/18 00:20:47;;;;;;;;;;;18.00;99.90;;;;;;6168936;23;19924;-80
2021/06/18 00:26:29;;;;;;;;;;;18.00;99.90;;;;;;6238029;22;20257;-79
2021/06/18 00:28:57;;;;;;;;;;;17.90;99.90;;;;;;6197221;23;19919;-79
2021/06/18 00:31:24;;;;;;;;;;;17.90;99.90;;;;;;6221889;23;20002;-79
2021/06/18 00:33:51;;;;;;;;;;;17.90;99.90;;;;;;6197275;23;19920;-79
2021/06/18 00:36:24;;;;;;;;;;;17.90;99.90;;;;;;6198526;23;20373;-79
2021/06/18 00:38:51;;;;;;;;;;;17.90;99.90;;;;;;6197213;23;19919;-79
2021/06/18 00:41:19;;;;;;;;;;;17.90;99.90;;;;;;6222114;23;19926;-79
2021/06/18 00:43:51;;;;;;;;;;;17.90;99.90;;;;;;6198191;23;20260;-79
2021/06/18 00:46:19;;;;;;;;;;;17.80;99.90;;;;;;6197671;23;19920;-80
2021/06/18 00:48:47;;;;;;;;;;;17.70;99.90;;;;;;6197303;23;19919;-80
2021/06/18 00:51:15;;;;;;;;;;;17.60;99.90;;;;;;6197481;23;19920;-79
2021/06/18 00:53:42;;;;;;;;;;;17.60;99.90;;;;;;6197050;23;19920;-79
2021/06/18 00:56:10;;;;;;;;;;;17.60;99.90;;;;;;6197200;23;19940;-79
2021/06/18 00:58:37;;;;;;;;;;;17.60;99.90;;;;;;6197196;23;19923;-80
2021/06/18 01:01:05;;;;;;;;;;;17.60;99.90;;;;;;6221791;23;19942;-79
2021/06/18 01:06:31;;;;;;;;;;;17.50;99.90;;;;;;6245584;22;19950;-78
2021/06/18 01:09:01;;;;;;;;;;;17.50;99.90;;;;;;6196098;23;19923;-79
2021/06/18 01:11:41;;;;;;;;;;;17.50;99.90;;;;;;6196083;23;19926;-78
2021/06/18 01:14:09;;;;;;;;;;;17.40;99.90;;;;;;6196158;23;19958;-79
2021/06/18 01:16:38;;;;;;;;;;;17.40;99.90;;;;;;6195941;23;19920;-79
2021/06/18 01:19:21;;;;;;;;;;;17.40;99.90;;;;;;6221360;23;19931;-79
2021/06/18 01:22:05;;;;;;;;;;;17.40;99.90;;;;;;6197550;23;19920;-79
2021/06/18 01:24:44;;;;;;;;;;;17.40;99.90;;;;;;6195949;23;20336;-79
2021/06/18 01:27:12;;;;;;;;;;;17.40;99.90;;;;;;6195998;23;19920;-79
2021/06/18 01:29:49;;;;;;;;;;;17.30;99.90;;;;;;6197327;23;19919;-79
2021/06/18 01:32:23;;;;;;;;;;;17.30;99.90;;;;;;6205076;23;19946;-79
2021/06/18 01:34:58;;;;;;;;;;;17.30;99.90;;;;;;6208256;23;20002;-79
2021/06/18 01:37:31;;;;;;;;;;;17.30;99.90;;;;;;6231754;23;19926;-81
2021/06/18 01:40:01;;;;;;;;;;;17.20;99.90;;;;;;6196471;23;19920;-81
2021/06/18 01:42:34;;;;;;;;;;;17.20;99.90;;;;;;6197281;23;19946;-81
2021/06/18 01:48:04;;;;;;;;;;;17.10;99.90;;;;;;6246746;22;19973;-79
2021/06/18 01:50:32;;;;;;;;;;;17.00;99.90;;;;;;6195959;23;19969;-78
2021/06/18 01:52:59;;;;;;;;;;;17.00;99.90;;;;;;6195469;23;19920;-79
2021/06/18 01:55:30;;;;;;;;;;;17.10;99.90;;;;;;6166848;23;19920;-79
2021/06/18 01:57:59;;;;;;;;;;;17.10;99.90;;;;;;6190960;23;20264;-81
2021/06/18 02:00:27;;;;;;;;;;;17.10;99.90;;;;;;6191252;23;19947;-81
2021/06/18 02:02:57;;;;;;;;;;;17.10;99.90;;;;;;6216193;23;19948;-81
2021/06/18 02:05:24;;;;;;;;;;;17.10;99.90;;;;;;6191139;23;19959;-81
2021/06/18 02:07:57;;;;;;;;;;;17.10;99.90;;;;;;6191427;23;19920;-81
2021/06/18 02:10:25;;;;;;;;;;;17.10;99.90;;;;;;6191001;23;19926;-81
2021/06/18 02:12:55;;;;;;;;;;;17.10;99.90;;;;;;6191041;23;19927;-81
2021/06/18 02:15:23;;;;;;;;;;;17.10;99.90;;;;;;6217541;23;20413;-81
2021/06/18 02:17:51;;;;;;;;;;;16.90;99.90;;;;;;6190638;23;19927;-81
2021/06/18 02:20:19;;;;;;;;;;;16.80;99.90;;;;;;6190955;23;19924;-81
2021/06/18 02:22:52;;;;;;;;;;;16.70;99.90;;;;;;6190603;23;19951;-81
2021/06/18 02:28:28;;;;;;;;;;;16.70;99.90;;;;;;6245205;22;19927;-78
2021/06/18 02:30:55;;;;;;;;;;;16.70;99.90;;;;;;6195501;23;19920;-78
2021/06/18 02:33:23;;;;;;;;;;;16.70;99.90;;;;;;6195187;22;19920;-80
2021/06/18 02:35:55;;;;;;;;;;;16.50;99.90;;;;;;6196396;23;20269;-78
2021/06/18 02:38:23;;;;;;;;;;;16.50;99.90;;;;;;6220327;23;19920;-79
2021/06/18 02:40:50;;;;;;;;;;;16.50;99.90;;;;;;6222198;23;19981;-79
2021/06/18 02:49:06;;;;;;;;;;;16.40;99.90;;;;;;6232651;22;19915;-80
2021/06/18 02:51:41;;;;;;;;;;;16.40;99.90;;;;;;6198071;23;19920;-80
2021/06/18 02:57:18;;;;;;;;;;;16.50;99.90;;;;;;6216289;22;19970;-80
2021/06/18 02:59:58;;;;;;;;;;;16.50;99.90;;;;;;6168069;23;19923;-79
2021/06/18 03:02:32;;;;;;;;;;;16.50;99.90;;;;;;6168381;23;19924;-80
2021/06/18 03:05:05;;;;;;;;;;;16.50;99.90;;;;;;6193929;23;19927;-80
2021/06/18 03:07:33;;;;;;;;;;;16.40;99.90;;;;;;6168096;23;19920;-80
2021/06/18 03:10:05;;;;;;;;;;;16.40;99.90;;;;;;6192589;23;19927;-79
2021/06/18 03:12:33;;;;;;;;;;;16.40;99.90;;;;;;6168332;23;20333;-80
2021/06/18 03:29:41;;;;;;;;;;;16.20;99.90;;;;;;6252934;22;19962;-79
2021/06/18 03:32:09;;;;;;;;;;;16.20;99.90;;;;;;6232301;22;19958;-79
2021/06/18 03:34:36;;;;;;;;;;;16.10;99.90;;;;;;6227672;22;19919;-79
2021/06/18 03:37:08;;;;;;;;;;;16.10;99.90;;;;;;6228712;22;19933;-80
2021/06/18 03:39:35;;;;;;;;;;;16.10;99.90;;;;;;6228236;22;20310;-79
2021/06/18 03:42:03;;;;;;;;;;;16.10;99.90;;;;;;6229775;22;19942;-80
2021/06/18 03:44:30;;;;;;;;;;;16.00;99.90;;;;;;6253437;22;19923;-80
2021/06/18 03:46:57;;;;;;;;;;;16.00;99.90;;;;;;6252904;22;19919;-79
2021/06/18 03:49:25;;;;;;;;;;;16.00;99.90;;;;;;6228446;22;19926;-79
2021/06/18 03:51:54;;;;;;;;;;;16.30;99.90;;;;;;6227361;22;19981;-79
2021/06/18 03:54:22;;;;;;;;;;;16.30;99.90;;;;;;6227749;22;19923;-79
2021/06/18 03:56:51;;;;;;;;;;;16.30;99.90;;;;;;6227572;22;19919;-79
2021/06/18 03:59:20;;;;;;;;;;;16.20;99.90;;;;;;6227359;22;19969;-79
2021/06/18 04:01:51;;;;;;;;;;;16.10;99.90;;;;;;6227266;22;19928;-78
2021/06/18 04:04:24;;;;;;;;;;;16.00;99.90;;;;;;6228460;22;19934;-80
2021/06/18 04:06:51;;;;;;;;;;;16.00;99.90;;;;;;6227379;22;19941;-79
2021/06/18 04:09:24;;;;;;;;;;;16.00;99.90;;;;;;6252345;22;19965;-78
2021/06/18 04:11:51;;;;;;;;;;;16.10;99.90;;;;;;6226809;22;19919;-78
2021/06/18 04:20:12;;;;;;;;;;;16.10;99.90;;;;;;6187815;23;19988;-79
2021/06/18 04:22:39;;;;;;;;;;;16.10;99.90;;;;;;6137022;23;19927;-79
2021/06/18 04:27:54;;;;;;;;;;;16.20;99.90;;;;;;6248159;23;20352;-78
2021/06/18 04:30:23;;;;;;;;;;;16.20;99.90;;;;;;6221275;23;20003;-78
2021/06/18 04:32:53;;;;;;;;;;;16.30;99.90;;;;;;6196740;23;19923;-79
2021/06/18 04:35:21;;;;;;;;;;;16.40;99.90;;;;;;6196353;23;19919;-78
2021/06/18 04:37:49;;;;;;;;;;;16.40;99.90;;;;;;6196566;23;19919;-78
2021/06/18 04:40:16;;;;;;;;;;;16.50;99.90;;;;;;6221296;23;20007;-79
2021/06/18 04:42:43;;;;;;;;;;;16.50;99.90;;;;;;6197340;23;19927;-79
2021/06/18 04:45:13;;;;;;;;;;;16.50;99.90;;;;;;6196687;23;19969;-79
2021/06/18 04:47:40;;;;;;;;;;;16.50;99.90;;;;;;6197041;23;19920;-79
2021/06/18 04:50:08;;;;;;;;;;;16.50;99.90;;;;;;6221859;23;19919;-79
2021/06/18 04:52:37;;;;;;;;;;;16.60;99.90;;;;;;6197316;23;19920;-79
2021/06/18 05:00:56;;;;;;;;;;;16.90;99.90;;;;;;6254826;22;19926;-80
2021/06/18 05:03:24;;;;;;;;;;;16.90;99.90;;;;;;6225880;22;19919;-81
2021/06/18 05:05:51;;;;;;;;;;;17.00;99.90;;;;;;6198283;23;19927;-80
2021/06/18 05:08:19;;;;;;;;;;;17.00;99.90;;;;;;6222766;23;20367;-80
2021/06/18 05:10:46;;;;;;;;;;;17.10;99.90;;;;;;6197523;23;19950;-80
2021/06/18 05:13:16;;;;;;;;;;;17.10;99.90;;;;;;6222806;22;19926;-80
2021/06/18 07:24:34;;;;;;;;;;;21.80;99.90;;;;;;6272992;22;19915;-79
2021/06/18 07:27:10;;;;;;;;;;;22.20;99.90;;;;;;6213198;23;19920;-80
2021/06/18 08:29:46;;;;;;;;;;;24.60;99.90;;;;;;6182431;23;19928;-80
2021/06/18 08:32:31;;;;;;;;;;;24.60;99.90;;;;;;6179532;23;19921;-80
2021/06/18 08:36:16;;;;;;;;;;;24.80;99.90;;;;;;6063020;23;20018;-80
2021/06/18 08:38:49;;;;;;;;;;;24.90;99.90;;;;;;6057090;23;19946;-80
2021/06/18 08:41:21;;;;;;;;;;;25.00;99.90;;;;;;6072002;23;20019;-80
2021/06/18 08:43:49;;;;;;;;;;;25.10;99.90;;;;;;6139397;23;20136;-80
2021/06/18 08:46:16;;;;;;;;;;;25.20;99.90;;;;;;6091779;23;19923;-80
2021/06/18 08:48:43;;;;;;;;;;;25.30;99.90;;;;;;6117652;23;20028;-80
2021/06/18 08:51:13;;;;;;;;;;;25.40;99.90;;;;;;6118352;23;19928;-80
2021/06/18 08:53:41;;;;;;;;;;;25.40;99.90;;;;;;6118905;23;19949;-80
2021/06/18 08:56:12;;;;;;;;;;;25.60;99.90;;;;;;6119136;23;19921;-80
2021/06/18 08:58:49;;;;;;;;;;;25.60;99.90;;;;;;6120826;23;19905;-80
2021/06/18 09:01:22;;;;;;;;;;;25.70;99.90;;;;;;6120975;23;19904;-80
2021/06/18 09:03:56;;;;;;;;;;;25.80;99.90;;;;;;6122229;23;19921;-80
2021/06/18 09:06:42;;;;;;;;;;;25.90;99.90;;;;;;6119270;23;19909;-80
2021/06/18 09:09:31;;;;;;;;;;;26.00;99.90;;;;;;6146196;23;19905;-79
2021/06/18 09:12:03;;;;;;;;;;;26.10;99.90;;;;;;6129406;23;19925;-80
2021/06/18 09:55:31;;;;;;;;;;;27.60;91.10;;;;;;6183284;23;20270;-83
2021/06/18 09:57:58;;;;;;;;;;;27.80;91.10;;;;;;6142865;23;20346;-82
2021/06/18 10:00:26;;;;;;;;;;;27.80;86.00;;;;;;6167725;23;19931;-83
2021/06/18 10:02:53;;;;;;;;;;;27.90;87.10;;;;;;6169028;23;20242;-82
2021/06/18 10:05:21;;;;;;;;;;;28.00;87.90;;;;;;6146734;23;19927;-81
2021/06/18 10:07:50;;;;;;;;;;;28.20;90.60;;;;;;6200162;23;19920;-83
2021/06/18 10:10:18;;;;;;;;;;;28.30;89.10;;;;;;6174625;23;19920;-83
2021/06/18 10:12:54;;;;;;;;;;;28.40;85.30;;;;;;6174880;23;19993;-83
2021/06/18 10:15:27;;;;;;;;;;;28.40;85.20;;;;;;6193913;23;19956;-84
2021/06/18 10:17:55;;;;;;;;;;;28.60;84.30;;;;;;6145974;23;19978;-82
2021/06/18 10:20:26;;;;;;;;;;;28.60;85.90;;;;;;6171628;23;19924;-83
2021/06/18 10:23:09;;;;;;;;;;;28.60;82.80;;;;;;6147533;23;19928;-82
2021/06/18 10:25:38;;;;;;;;;;;28.60;81.50;;;;;;6167889;23;19926;-82
2021/06/18 10:28:09;;;;;;;;;;;28.70;82.90;;;;;;6143188;23;19920;-82
2021/06/18 10:30:44;;;;;;;;;;;28.80;80.50;;;;;;6146586;23;19947;-82
2021/06/18 10:33:27;;;;;;;;;;;28.90;79.70;;;;;;6147773;23;19920;-82
2021/06/18 10:36:17;;;;;;;;;;;29.00;81.40;;;;;;6147039;23;19964;-82
2021/06/18 10:38:45;;;;;;;;;;;29.10;81.20;;;;;;6144717;23;19924;-82
2021/06/18 10:41:18;;;;;;;;;;;29.20;76.90;;;;;;6169717;23;19925;-82
2021/06/18 10:43:46;;;;;;;;;;;29.20;77.00;;;;;;6142135;23;20334;-81
2021/06/18 10:46:18;;;;;;;;;;;29.30;77.60;;;;;;6167540;23;19927;-82
2021/06/18 10:48:55;;;;;;;;;;;29.40;75.90;;;;;;6190405;23;19921;-85
2021/06/18 10:51:27;;;;;;;;;;;29.50;70.10;;;;;;6144142;23;19995;-84
2021/06/18 10:54:04;;;;;;;;;;;29.60;66.60;;;;;;6167550;23;19924;-85
2021/06/18 10:56:43;;;;;;;;;;;29.60;68.40;;;;;;6168346;23;19928;-84
2021/06/18 10:59:11;;;;;;;;;;;29.70;67.30;;;;;;6168230;23;20358;-84
2021/06/18 11:01:40;;;;;;;;;;;29.80;65.50;;;;;;6168488;23;20027;-85
2021/06/18 11:04:07;;;;;;;;;;;29.90;65.70;;;;;;6143395;23;20007;-85
2021/06/18 11:06:40;;;;;;;;;;;29.90;59.70;;;;;;6193527;23;19947;-84
2021/06/18 11:09:10;;;;;;;;;;;30.00;60.00;;;;;;6164988;23;19920;-85
2021/06/18 11:11:53;;;;;;;;;;;30.10;58.70;;;;;;6171385;23;19927;-85
2021/06/18 11:14:35;;;;;;;;;;;30.20;57.00;;;;;;6167785;23;20265;-84
2021/06/18 11:17:26;;;;;;;;;;;30.30;61.90;;;;;;6166140;23;19920;-83
2021/06/18 11:19:58;;;;;;;;;;;30.30;59.00;;;;;;6169245;23;19943;-82
2021/06/18 11:22:55;;;;;;;;;;;30.40;56.90;;;;;;6170248;23;20342;-83
2021/06/18 11:25:34;;;;;;;;;;;30.50;55.70;;;;;;6168249;23;19924;-83
2021/06/18 11:28:22;;;;;;;;;;;30.50;53.20;;;;;;6165935;23;19920;-83
2021/06/18 11:30:50;;;;;;;;;;;30.60;54.40;;;;;;6142797;23;19935;-83
2021/06/18 11:33:35;;;;;;;;;;;30.70;53.30;;;;;;6144124;23;19927;-83
2021/06/18 11:36:06;;;;;;;;;;;30.70;53.50;;;;;;6169573;23;19975;-83
2021/06/18 11:38:34;;;;;;;;;;;30.60;52.40;;;;;;6168392;23;20674;-83
2021/06/18 11:41:09;;;;;;;;;;;30.70;53.40;;;;;;6168994;23;19946;-83
2021/06/18 11:43:37;;;;;;;;;;;30.70;51.80;;;;;;6168134;23;19920;-83
2021/06/18 11:46:03;;;;;;;;;;;30.60;51.70;;;;;;6144364;23;19943;-83
2021/06/18 11:48:36;;;;;;;;;;;30.70;52.40;;;;;;6170707;23;19924;-83
2021/06/18 11:51:03;;;;;;;;;;;30.70;50.40;;;;;;6144890;23;19924;-83
2021/06/18 11:53:40;;;;;;;;;;;30.80;52.00;;;;;;6168429;23;19928;-82
2021/06/18 11:56:11;;;;;;;;;;;30.90;50.90;;;;;;6145473;23;20314;-82
2021/06/18 11:58:39;;;;;;;;;;;31.00;49.70;;;;;;6167911;23;19920;-83
2021/06/18 12:01:13;;;;;;;;;;;31.10;50.30;;;;;;6142869;23;19987;-83
2021/06/18 12:03:41;;;;;;;;;;;31.00;48.90;;;;;;6142267;23;19971;-83
2021/06/18 12:06:14;;;;;;;;;;;31.00;49.00;;;;;;6139553;23;20250;-83
2021/06/18 12:08:58;;;;;;;;;;;31.00;49.20;;;;;;6169702;23;19960;-83
2021/06/18 12:11:26;;;;;;;;;;;31.10;48.90;;;;;;6142432;23;19920;-81
2021/06/18 12:13:53;;;;;;;;;;;31.20;49.20;;;;;;6142565;23;19931;-82
2021/06/18 12:16:24;;;;;;;;;;;31.20;46.70;;;;;;6168129;23;19983;-81
2021/06/18 12:19:14;;;;;;;;;;;31.30;47.00;;;;;;6169039;23;19936;-80
2021/06/18 12:21:41;;;;;;;;;;;31.40;46.60;;;;;;6164052;23;19920;-81
2021/06/18 12:24:08;;;;;;;;;;;31.50;46.90;;;;;;6144687;23;19931;-83
2021/06/18 12:26:36;;;;;;;;;;;31.60;46.10;;;;;;6148264;23;19924;-80
2021/06/18 12:29:04;;;;;;;;;;;31.70;46.30;;;;;;6174103;23;19931;-81
2021/06/18 12:31:32;;;;;;;;;;;31.80;46.30;;;;;;6150016;23;19964;-81
2021/06/18 12:34:03;;;;;;;;;;;31.90;45.60;;;;;;6172800;23;19956;-81
2021/06/18 12:36:34;;;;;;;;;;;31.80;46.80;;;;;;6149200;23;19924;-81
2021/06/18 12:39:08;;;;;;;;;;;31.90;47.10;;;;;;6172096;23;19927;-83
2021/06/18 12:41:36;;;;;;;;;;;32.00;44.70;;;;;;6166636;23;19920;-82
2021/06/18 12:44:03;;;;;;;;;;;32.10;46.40;;;;;;6190801;23;19920;-83
2021/06/18 12:46:30;;;;;;;;;;;32.30;45.20;;;;;;6192589;23;19943;-83
2021/06/18 12:49:06;;;;;;;;;;;32.40;44.20;;;;;;6163615;23;20361;-82
2021/06/18 12:51:33;;;;;;;;;;;32.60;43.60;;;;;;6141967;23;19924;-82
2021/06/18 12:54:06;;;;;;;;;;;32.80;42.60;;;;;;6190344;23;20007;-83
2021/06/18 12:56:43;;;;;;;;;;;33.00;44.70;;;;;;6165241;23;19920;-83
2021/06/18 12:59:14;;;;;;;;;;;33.10;45.40;;;;;;6141177;23;19921;-82
2021/06/18 13:01:43;;;;;;;;;;;33.20;45.60;;;;;;6191579;23;19995;-82
2021/06/18 13:04:13;;;;;;;;;;;33.10;43.50;;;;;;6165523;23;19943;-82
2021/06/18 13:06:42;;;;;;;;;;;33.00;45.00;;;;;;6165748;23;20392;-82
2021/06/18 13:09:10;;;;;;;;;;;33.10;45.10;;;;;;6189850;23;19998;-82
2021/06/18 13:11:38;;;;;;;;;;;33.20;45.00;;;;;;6140191;23;19920;-82
2021/06/18 13:14:17;;;;;;;;;;;33.40;43.60;;;;;;6164096;23;19963;-83
2021/06/18 13:16:45;;;;;;;;;;;33.50;43.60;;;;;;6140214;23;19931;-82
2021/06/18 13:19:12;;;;;;;;;;;33.60;45.10;;;;;;6139898;23;19951;-82
2021/06/18 13:21:51;;;;;;;;;;;33.80;44.10;;;;;;6139614;23;19940;-82
2021/06/18 13:24:22;;;;;;;;;;;33.80;42.70;;;;;;6138185;23;19931;-82
2021/06/18 13:26:54;;;;;;;;;;;33.90;42.10;;;;;;6165976;23;19921;-82
2021/06/18 13:29:22;;;;;;;;;;;34.00;43.80;;;;;;6141006;23;20246;-82
2021/06/18 13:31:55;;;;;;;;;;;34.00;44.40;;;;;;6140840;23;19924;-82
2021/06/18 13:34:26;;;;;;;;;;;34.00;42.80;;;;;;6165127;23;19920;-82
2021/06/18 13:37:01;;;;;;;;;;;34.10;43.50;;;;;;6166140;23;19920;-82
2021/06/18 13:39:28;;;;;;;;;;;34.30;43.90;;;;;;6139245;23;19926;-84
2021/06/18 13:41:54;;;;;;;;;;;34.40;44.20;;;;;;6139630;23;19924;-82
2021/06/18 13:44:21;;;;;;;;;;;34.40;44.40;;;;;;6140754;23;19920;-83
2021/06/18 13:46:48;;;;;;;;;;;34.30;43.00;;;;;;6140720;23;19920;-82
2021/06/18 13:49:22;;;;;;;;;;;34.50;44.20;;;;;;6141835;23;20254;-84
2021/06/18 13:51:49;;;;;;;;;;;34.60;42.10;;;;;;6163207;23;19927;-82
2021/06/18 13:54:16;;;;;;;;;;;34.60;42.10;;;;;;6164948;23;19920;-82
2021/06/18 13:56:43;;;;;;;;;;;34.40;42.10;;;;;;6132792;23;19924;-82
2021/06/18 13:59:10;;;;;;;;;;;34.40;42.30;;;;;;6141681;23;19928;-82
2021/06/18 14:01:41;;;;;;;;;;;34.40;43.50;;;;;;6166288;23;19920;-84
2021/06/18 14:04:13;;;;;;;;;;;34.50;43.10;;;;;;6139833;23;19988;-84
2021/06/18 14:06:48;;;;;;;;;;;34.60;42.40;;;;;;6163268;23;19920;-81
2021/06/18 14:09:23;;;;;;;;;;;34.70;41.50;;;;;;6142567;23;19924;-82
2021/06/18 14:11:49;;;;;;;;;;;34.70;41.30;;;;;;6165779;23;19920;-82
2021/06/18 14:14:18;;;;;;;;;;;34.60;41.20;;;;;;6140163;23;19920;-82
2021/06/18 14:16:52;;;;;;;;;;;34.60;41.40;;;;;;6166078;23;19920;-82
2021/06/18 14:19:27;;;;;;;;;;;34.90;40.80;;;;;;6166362;23;19927;-82
2021/06/18 14:21:56;;;;;;;;;;;35.20;41.30;;;;;;6162721;23;19928;-83
2021/06/18 14:24:22;;;;;;;;;;;35.60;41.50;;;;;;6137565;23;19936;-82
2021/06/18 14:26:49;;;;;;;;;;;35.70;41.00;;;;;;6138491;23;19931;-84
2021/06/18 14:29:16;;;;;;;;;;;35.70;40.90;;;;;;6165080;23;19921;-82
2021/06/18 14:31:43;;;;;;;;;;;35.90;41.10;;;;;;6140551;23;19946;-82
2021/06/18 14:34:14;;;;;;;;;;;36.10;41.40;;;;;;6189702;23;19924;-81
2021/06/18 14:36:41;;;;;;;;;;;36.10;38.50;;;;;;6164581;23;19920;-84
2021/06/18 14:39:09;;;;;;;;;;;36.10;38.60;;;;;;6139553;23;19971;-84
2021/06/18 14:41:36;;;;;;;;;;;36.10;38.60;;;;;;6164081;23;19920;-84
2021/06/18 14:44:05;;;;;;;;;;;36.40;37.80;;;;;;6141610;23;19943;-82
2021/06/18 14:46:32;;;;;;;;;;;36.70;38.40;;;;;;6140817;23;19920;-84
2021/06/18 14:48:59;;;;;;;;;;;36.80;36.90;;;;;;6141748;23;19943;-85
2021/06/18 14:51:35;;;;;;;;;;;36.70;38.60;;;;;;6142323;23;19920;-85
2021/06/18 14:54:03;;;;;;;;;;;36.90;38.20;;;;;;6142480;23;19920;-83
2021/06/18 14:56:30;;;;;;;;;;;37.00;37.70;;;;;;6166685;23;19921;-84
2021/06/18 14:59:02;;;;;;;;;;;37.00;38.70;;;;;;6142417;23;19920;-82
2021/06/18 15:01:29;;;;;;;;;;;37.00;37.30;;;;;;6141155;23;19920;-84
2021/06/18 15:03:56;;;;;;;;;;;37.20;37.10;;;;;;6139955;23;20337;-84
2021/06/18 15:06:28;;;;;;;;;;;37.40;36.10;;;;;;6165269;23;20399;-84
2021/06/18 15:08:55;;;;;;;;;;;37.50;34.30;;;;;;6142814;23;19928;-84
2021/06/18 15:11:22;;;;;;;;;;;37.50;32.90;;;;;;6141662;23;19924;-84
2021/06/18 15:13:49;;;;;;;;;;;37.70;33.90;;;;;;6191758;23;19920;-84
2021/06/18 15:16:21;;;;;;;;;;;37.80;35.10;;;;;;6194562;23;19959;-85
2021/06/18 15:18:48;;;;;;;;;;;37.70;34.60;;;;;;6196877;23;19920;-84
2021/06/18 15:21:15;;;;;;;;;;;37.80;34.90;;;;;;6175387;23;19928;-84
2021/06/18 15:23:43;;;;;;;;;;;37.80;35.60;;;;;;6173665;23;19924;-85
2021/06/18 15:26:11;;;;;;;;;;;38.10;33.50;;;;;;6174742;23;19927;-85
2021/06/18 15:28:38;;;;;;;;;;;38.00;34.10;;;;;;6151584;23;19921;-84
2021/06/18 15:31:05;;;;;;;;;;;38.10;34.90;;;;;;6175606;23;19928;-84
2021/06/18 15:33:32;;;;;;;;;;;38.50;33.50;;;;;;6150002;23;19920;-84
2021/06/18 15:36:00;;;;;;;;;;;38.70;33.30;;;;;;6174350;23;19921;-84
2021/06/18 15:38:27;;;;;;;;;;;38.70;32.70;;;;;;6175537;23;19920;-85
2021/06/18 15:40:54;;;;;;;;;;;38.90;32.30;;;;;;6150014;23;19920;-85
2021/06/18 15:43:21;;;;;;;;;;;38.80;32.10;;;;;;6148089;23;20269;-85
2021/06/18 15:45:50;;;;;;;;;;;38.90;32.90;;;;;;6172852;23;19951;-84
2021/06/18 15:48:16;;;;;;;;;;;39.20;32.80;;;;;;6172184;23;19928;-85
2021/06/18 15:50:43;;;;;;;;;;;39.20;30.70;;;;;;6174032;23;20268;-84
2021/06/18 15:53:10;;;;;;;;;;;39.20;32.30;;;;;;6152508;23;19968;-84
2021/06/18 15:55:37;;;;;;;;;;;39.30;32.00;;;;;;6151125;23;19920;-84
2021/06/18 15:58:04;;;;;;;;;;;39.50;33.20;;;;;;6176560;23;19920;-85
2021/06/18 16:00:31;;;;;;;;;;;39.70;34.20;;;;;;6174827;23;19952;-84
2021/06/18 16:02:58;;;;;;;;;;;39.70;33.00;;;;;;6151931;23;19935;-84
2021/06/18 16:05:25;;;;;;;;;;;39.70;33.40;;;;;;6150514;23;19924;-84
2021/06/18 16:07:51;;;;;;;;;;;39.60;33.30;;;;;;6152087;23;20364;-85
2021/06/18 16:10:19;;;;;;;;;;;39.70;33.10;;;;;;6151573;23;19921;-86
2021/06/18 16:12:51;;;;;;;;;;;40.00;33.20;;;;;;6176177;23;19943;-85
2021/06/18 16:15:18;;;;;;;;;;;40.30;33.10;;;;;;6175576;23;19947;-85
2021/06/18 16:17:45;;;;;;;;;;;39.90;33.40;;;;;;6173382;23;19924;-85
2021/06/18 16:20:13;;;;;;;;;;;39.90;33.60;;;;;;6152430;23;21354;-85
2021/06/18 16:22:45;;;;;;;;;;;39.90;33.20;;;;;;6174336;23;19920;-84
2021/06/18 16:25:13;;;;;;;;;;;39.70;34.00;;;;;;6171467;23;19998;-83
2021/06/18 16:27:44;;;;;;;;;;;39.50;33.90;;;;;;6168960;23;20297;-83
2021/06/18 16:30:11;;;;;;;;;;;39.10;33.00;;;;;;6194918;23;19932;-83
2021/06/18 16:32:43;;;;;;;;;;;38.80;34.20;;;;;;6142033;23;19940;-84
2021/06/18 16:35:10;;;;;;;;;;;38.70;34.00;;;;;;6140889;23;20412;-81
2021/06/18 16:37:37;;;;;;;;;;;38.60;34.60;;;;;;6143497;23;19920;-83
2021/06/18 16:40:05;;;;;;;;;;;38.50;34.90;;;;;;6193886;23;19921;-83
2021/06/18 16:42:31;;;;;;;;;;;38.50;34.70;;;;;;6169788;23;20015;-83
2021/06/18 16:44:58;;;;;;;;;;;38.40;35.10;;;;;;6143915;23;19920;-84
2021/06/18 16:47:25;;;;;;;;;;;38.30;34.60;;;;;;6144790;23;19931;-83
2021/06/18 16:49:52;;;;;;;;;;;38.40;35.30;;;;;;6168687;23;19920;-83
2021/06/18 16:52:19;;;;;;;;;;;38.50;34.60;;;;;;6144555;23;19927;-84
2021/06/18 16:54:45;;;;;;;;;;;38.40;34.10;;;;;;6163799;23;19932;-83
2021/06/18 16:57:13;;;;;;;;;;;38.40;34.50;;;;;;6165102;23;19920;-84
2021/06/18 16:59:43;;;;;;;;;;;38.50;34.10;;;;;;6113728;23;19924;-83
2021/06/18 17:02:20;;;;;;;;;;;38.60;34.00;;;;;;6118646;23;19927;-82
2021/06/18 17:04:46;;;;;;;;;;;38.60;33.80;;;;;;6139859;23;19920;-83
2021/06/18 17:07:14;;;;;;;;;;;38.60;35.30;;;;;;6115652;23;19921;-83
2021/06/18 17:09:41;;;;;;;;;;;38.50;33.20;;;;;;6115678;23;19921;-85
2021/06/18 17:12:17;;;;;;;;;;;38.70;33.00;;;;;;6140762;23;19921;-82
2021/06/18 17:14:50;;;;;;;;;;;38.60;34.00;;;;;;6115496;23;19944;-83
2021/06/18 17:17:17;;;;;;;;;;;38.40;34.40;;;;;;6141053;23;19928;-83
2021/06/18 17:19:44;;;;;;;;;;;38.20;34.20;;;;;;6140673;23;19927;-83
2021/06/18 17:22:11;;;;;;;;;;;37.90;34.20;;;;;;6115426;23;19921;-82
2021/06/18 17:24:37;;;;;;;;;;;37.80;34.70;;;;;;6165851;23;19929;-83
2021/06/18 17:27:09;;;;;;;;;;;37.70;35.80;;;;;;6117251;23;20279;-82
2021/06/18 17:29:37;;;;;;;;;;;37.60;36.10;;;;;;6139096;23;19931;-83
2021/06/18 17:32:08;;;;;;;;;;;37.70;35.80;;;;;;6163723;23;19968;-81
2021/06/18 17:34:37;;;;;;;;;;;37.70;36.40;;;;;;6138899;23;19924;-82
2021/06/18 17:37:04;;;;;;;;;;;37.50;34.90;;;;;;6137902;23;19921;-81
2021/06/18 17:39:31;;;;;;;;;;;37.30;37.00;;;;;;6137624;23;19928;-85
2021/06/18 17:41:58;;;;;;;;;;;37.20;37.90;;;;;;6115849;23;20486;-83
2021/06/18 17:44:30;;;;;;;;;;;37.10;38.20;;;;;;6114658;23;19921;-84
2021/06/18 17:46:57;;;;;;;;;;;36.90;38.80;;;;;;6114035;23;19928;-84
2021/06/18 17:49:24;;;;;;;;;;;36.60;41.40;;;;;;6137824;23;19944;-85
2021/06/18 17:51:51;;;;;;;;;;;36.10;45.90;;;;;;6126000;23;19999;-84
2021/06/18 17:54:23;;;;;;;;;;;35.60;47.70;;;;;;6186975;23;19924;-82
2021/06/18 17:56:55;;;;;;;;;;;34.90;48.30;;;;;;6164416;23;19921;-84
2021/06/18 17:59:27;;;;;;;;;;;34.20;50.70;;;;;;6163207;23;19944;-84
2021/06/18 18:01:54;;;;;;;;;;;33.70;51.70;;;;;;6163987;23;19928;-82
2021/06/18 18:04:21;;;;;;;;;;;33.20;52.90;;;;;;6137923;23;19920;-85
2021/06/18 18:06:47;;;;;;;;;;;32.90;53.60;;;;;;6136611;23;19952;-83
2021/06/18 18:09:14;;;;;;;;;;;32.60;53.80;;;;;;6134078;23;20693;-85
2021/06/18 18:11:46;;;;;;;;;;;32.40;55.20;;;;;;6159345;23;19940;-83
2021/06/18 18:14:17;;;;;;;;;;;32.00;56.60;;;;;;6159952;23;19940;-84
2021/06/18 18:16:44;;;;;;;;;;;31.80;57.50;;;;;;6164317;23;19924;-80
2021/06/18 18:19:11;;;;;;;;;;;31.40;57.70;;;;;;6162897;23;19948;-82
2021/06/18 18:21:38;;;;;;;;;;;31.10;58.30;;;;;;6138083;23;19925;-82
2021/06/18 18:24:05;;;;;;;;;;;30.90;58.10;;;;;;6138495;23;19921;-81
2021/06/18 18:26:34;;;;;;;;;;;30.60;59.30;;;;;;6138029;23;19931;-82
2021/06/18 18:29:06;;;;;;;;;;;30.30;60.00;;;;;;6139767;23;19920;-82
2021/06/18 18:31:35;;;;;;;;;;;30.20;61.10;;;;;;6137832;23;19952;-81
2021/06/18 18:34:03;;;;;;;;;;;29.90;61.80;;;;;;6137331;23;19944;-82
2021/06/18 18:36:30;;;;;;;;;;;29.70;62.60;;;;;;6161061;23;19925;-82
2021/06/18 18:38:56;;;;;;;;;;;29.50;63.30;;;;;;6137753;23;19970;-82
2021/06/18 18:41:23;;;;;;;;;;;29.30;64.30;;;;;;6135836;23;19924;-81
2021/06/18 18:43:50;;;;;;;;;;;29.20;64.70;;;;;;6135704;23;20258;-82
2021/06/18 18:46:21;;;;;;;;;;;29.10;65.00;;;;;;6137636;23;19944;-82
2021/06/18 18:48:50;;;;;;;;;;;29.00;65.50;;;;;;6161153;23;19942;-82
2021/06/18 18:51:21;;;;;;;;;;;28.80;66.50;;;;;;6160926;23;19959;-82
2021/06/18 18:53:53;;;;;;;;;;;28.60;67.10;;;;;;6136463;23;19971;-83
2021/06/18 18:56:20;;;;;;;;;;;28.40;67.50;;;;;;6135634;23;19960;-83
2021/06/18 19:01:19;;;;;;;;;;;28.20;68.50;;;;;;6134793;23;20393;-83
2021/06/18 19:03:45;;;;;;;;;;;28.00;68.60;;;;;;6132312;23;19976;-82
2021/06/18 19:06:17;;;;;;;;;;;27.90;68.80;;;;;;6111343;23;19931;-83
2021/06/18 19:08:44;;;;;;;;;;;27.80;69.30;;;;;;6136405;23;20297;-82
2021/06/18 19:11:16;;;;;;;;;;;27.70;69.70;;;;;;6137801;23;19936;-82
2021/06/18 19:13:42;;;;;;;;;;;27.50;70.50;;;;;;6138395;23;20338;-83
2021/06/18 19:16:09;;;;;;;;;;;27.30;70.60;;;;;;6114402;23;19921;-83